createdAt,value
2022-10-16T00:02:17.464Z,17.73
2022-10-16T00:04:43.936Z,17.62
2022-10-16T00:07:10.263Z,17.23
2022-10-16T00:09:36.616Z,17.51
2022-10-16T00:12:04.820Z,17.28
2022-10-16T00:14:31.150Z,17.36
2022-10-16T00:16:57.445Z,17.58
2022-10-16T00:19:23.774Z,17.30
2022-10-16T00:21:50.162Z,17.53
2022-10-16T00:24:16.597Z,17.49
2022-10-16T00:26:42.964Z,17.51
2022-10-16T00:29:09.675Z,17.48
2022-10-16T00:31:36.473Z,16.98
2022-10-16T00:34:03.714Z,17.42
2022-10-16T00:36:30.191Z,17.59
2022-10-16T00:41:28.192Z,17.50
2022-10-16T00:43:57.616Z,17.30
2022-10-16T00:46:29.136Z,17.60
2022-10-16T00:49:01.330Z,17.59
2022-10-16T00:51:33.396Z,17.56
2022-10-16T00:54:00.858Z,17.45
2022-10-16T00:56:27.350Z,17.45
2022-10-16T00:58:53.901Z,17.44
2022-10-16T01:01:20.298Z,17.33
2022-10-16T01:03:46.675Z,17.16
2022-10-16T01:08:57.930Z,17.52
2022-10-16T01:11:49.014Z,17.15
2022-10-16T01:14:24.978Z,17.43
2022-10-16T01:17:07.370Z,17.31
2022-10-16T01:19:45.927Z,17.45
2022-10-16T01:22:14.053Z,17.29
2022-10-16T01:24:45.584Z,17.40
2022-10-16T01:27:29.857Z,17.39
2022-10-16T01:30:14.803Z,17.41
2022-10-16T01:32:42.816Z,17.38
2022-10-16T01:35:30.571Z,17.42
2022-10-16T01:38:16.267Z,17.37
2022-10-16T01:40:47.095Z,17.47
2022-10-16T01:43:17.909Z,17.23
2022-10-16T01:45:46.793Z,17.46
2022-10-16T01:48:17.342Z,17.24
2022-10-16T01:50:49.676Z,17.44
2022-10-16T01:53:17.843Z,17.30
2022-10-16T01:55:48.567Z,17.44
2022-10-16T01:58:15.426Z,17.32
2022-10-16T02:00:45.219Z,17.13
2022-10-16T02:03:15.308Z,17.47
2022-10-16T02:05:47.397Z,16.74
2022-10-16T02:08:14.919Z,17.43
2022-10-16T02:10:41.777Z,17.53
2022-10-16T02:13:13.947Z,17.26
2022-10-16T02:15:40.413Z,17.36
2022-10-16T02:18:08.371Z,17.36
2022-10-16T02:20:49.759Z,17.30
2022-10-16T02:23:24.980Z,17.41
2022-10-16T02:25:53.486Z,17.32
2022-10-16T02:28:33.537Z,17.28
2022-10-16T02:31:04.234Z,17.54
2022-10-16T02:33:32.654Z,17.54
2022-10-16T02:35:59.673Z,17.30
2022-10-16T02:38:26.876Z,17.39
2022-10-16T02:40:53.420Z,17.36
2022-10-16T02:43:20.262Z,17.41
2022-10-16T02:45:46.767Z,17.25
2022-10-16T02:48:13.114Z,17.23
2022-10-16T02:50:39.434Z,17.45
2022-10-16T02:53:05.862Z,17.51
2022-10-16T02:55:32.388Z,17.47
2022-10-16T02:57:58.793Z,17.48
2022-10-16T03:00:25.121Z,17.37
2022-10-16T03:02:51.454Z,17.45
2022-10-16T03:05:18.354Z,17.15
2022-10-16T03:07:44.674Z,17.16
2022-10-16T03:10:10.976Z,17.23
2022-10-16T03:12:37.409Z,16.61
2022-10-16T03:15:04.717Z,17.09
2022-10-16T03:17:32.619Z,17.21
2022-10-16T03:19:58.947Z,17.22
2022-10-16T03:22:25.302Z,17.22
2022-10-16T03:24:51.674Z,17.05
2022-10-16T03:27:18.226Z,17.33
2022-10-16T03:29:44.564Z,17.28
2022-10-16T03:32:10.882Z,17.15
2022-10-16T03:34:37.206Z,17.29
2022-10-16T03:37:03.532Z,16.99
2022-10-16T03:39:29.872Z,17.30
2022-10-16T03:41:56.192Z,17.08
2022-10-16T03:44:22.814Z,17.30
2022-10-16T03:46:49.127Z,16.99
2022-10-16T03:49:15.455Z,17.15
2022-10-16T03:51:41.789Z,17.16
2022-10-16T03:54:08.149Z,17.21
2022-10-16T03:56:34.545Z,17.20
2022-10-16T03:59:00.883Z,17.11
2022-10-16T04:01:27.323Z,17.18
2022-10-16T04:03:53.717Z,17.01
2022-10-16T04:06:20.039Z,17.25
2022-10-16T04:08:46.415Z,17.03
2022-10-16T04:11:12.918Z,16.85
2022-10-16T04:13:39.346Z,17.01
2022-10-16T04:16:05.885Z,17.19
2022-10-16T04:18:32.247Z,16.97
2022-10-16T04:21:03.990Z,17.01
2022-10-16T04:23:30.428Z,16.97
2022-10-16T04:25:56.804Z,16.23
2022-10-16T04:28:23.219Z,16.99
2022-10-16T04:30:49.661Z,17.10
2022-10-16T04:33:16.026Z,16.89
2022-10-16T04:35:42.362Z,16.86
2022-10-16T04:38:09.388Z,17.01
2022-10-16T04:40:37.482Z,16.99
2022-10-16T04:43:05.088Z,16.44
2022-10-16T04:45:31.547Z,16.93
2022-10-16T04:47:59.206Z,17.01
2022-10-16T04:50:25.650Z,16.71
2022-10-16T04:52:51.945Z,16.53
2022-10-16T04:55:18.332Z,16.58
2022-10-16T04:57:44.649Z,16.57
2022-10-16T05:00:11.459Z,16.62
2022-10-16T05:02:37.806Z,16.78
2022-10-16T05:05:04.585Z,16.60
2022-10-16T05:07:30.891Z,16.79
2022-10-16T05:09:57.214Z,16.84
2022-10-16T05:12:23.559Z,16.81
2022-10-16T05:14:49.910Z,16.91
2022-10-16T05:17:16.232Z,16.85
2022-10-16T05:19:42.554Z,16.68
2022-10-16T05:22:08.904Z,16.67
2022-10-16T05:24:35.784Z,16.94
2022-10-16T05:27:02.076Z,16.80
2022-10-16T05:29:28.430Z,16.94
2022-10-16T05:31:54.752Z,16.75
2022-10-16T05:34:21.766Z,16.92
2022-10-16T05:36:48.219Z,16.79
2022-10-16T05:39:16.322Z,16.77
2022-10-16T05:41:43.253Z,16.76
2022-10-16T05:44:10.031Z,16.80
2022-10-16T05:46:36.350Z,16.72
2022-10-16T05:49:02.950Z,16.73
2022-10-16T05:51:29.329Z,16.54
2022-10-16T05:53:55.653Z,16.46
2022-10-16T05:56:22.025Z,16.82
2022-10-16T05:58:48.365Z,16.95
2022-10-16T06:01:17.483Z,16.80
2022-10-16T06:03:44.593Z,17.00
2022-10-16T06:06:14.160Z,17.04
2022-10-16T06:08:42.743Z,16.90
2022-10-16T06:11:11.986Z,17.06
2022-10-16T06:13:39.784Z,16.83
2022-10-16T06:16:06.781Z,16.87
2022-10-16T06:18:33.127Z,16.89
2022-10-16T06:20:59.960Z,16.64
2022-10-16T06:23:26.968Z,16.95
2022-10-16T06:25:53.269Z,16.71
2022-10-16T06:28:19.613Z,16.71
2022-10-16T06:30:46.611Z,16.80
2022-10-16T06:33:13.301Z,17.02
2022-10-16T06:35:39.716Z,16.86
2022-10-16T06:38:06.092Z,16.86
2022-10-16T06:40:32.750Z,16.69
2022-10-16T06:42:59.069Z,16.95
2022-10-16T06:45:25.373Z,16.97
2022-10-16T06:47:51.673Z,16.52
2022-10-16T06:50:18.026Z,16.47
2022-10-16T06:52:44.322Z,16.80
2022-10-16T06:55:10.670Z,16.97
2022-10-16T06:57:36.986Z,16.87
2022-10-16T07:00:04.376Z,16.75
2022-10-16T07:02:30.673Z,16.73
2022-10-16T07:04:57.910Z,16.80
2022-10-16T07:07:25.677Z,16.76
2022-10-16T07:09:52.059Z,16.75
2022-10-16T07:12:18.665Z,16.84
2022-10-16T07:14:45.032Z,16.66
2022-10-16T07:17:11.367Z,16.80
2022-10-16T07:19:37.894Z,16.82
2022-10-16T07:22:04.301Z,16.67
2022-10-16T07:24:30.806Z,16.96
2022-10-16T07:26:57.199Z,16.69
2022-10-16T07:29:23.597Z,16.99
2022-10-16T07:31:50.726Z,16.74
2022-10-16T07:34:19.850Z,17.09
2022-10-16T07:36:49.192Z,16.95
2022-10-16T07:39:15.555Z,16.92
2022-10-16T07:41:41.956Z,16.74
2022-10-16T07:44:08.945Z,16.70
2022-10-16T07:46:36.865Z,17.24
2022-10-16T07:49:04.582Z,17.21
2022-10-16T07:51:31.002Z,17.13
2022-10-16T07:53:57.399Z,17.40
2022-10-16T07:56:23.769Z,17.32
2022-10-16T07:58:51.152Z,17.50
2022-10-16T08:01:19.026Z,17.53
2022-10-16T08:03:47.210Z,17.65
2022-10-16T08:06:13.864Z,17.60
2022-10-16T08:08:40.242Z,17.77
2022-10-16T08:11:06.604Z,17.54
2022-10-16T08:13:33.259Z,17.85
2022-10-16T08:15:59.595Z,17.39
2022-10-16T08:18:26.547Z,17.38
2022-10-16T08:20:58.220Z,17.82
2022-10-16T08:23:26.746Z,17.92
2022-10-16T08:26:10.086Z,18.09
2022-10-16T08:28:37.067Z,18.26
2022-10-16T08:31:14.742Z,18.27
2022-10-16T08:33:43.052Z,18.18
2022-10-16T08:36:11.632Z,18.43
2022-10-16T08:38:38.353Z,18.42
2022-10-16T08:41:34.991Z,18.82
2022-10-16T08:44:11.890Z,18.22
2022-10-16T08:46:50.631Z,18.75
2022-10-16T08:49:17.940Z,18.69
2022-10-16T08:51:44.519Z,18.56
2022-10-16T08:54:23.788Z,19.35
2022-10-16T08:56:50.136Z,19.29
2022-10-16T08:59:17.768Z,19.05
2022-10-16T09:01:50.468Z,19.25
2022-10-16T09:04:44.325Z,19.68
2022-10-16T09:07:24.339Z,19.46
2022-10-16T09:09:55.732Z,19.23
2022-10-16T09:12:39.259Z,19.45
2022-10-16T09:15:11.491Z,19.78
2022-10-16T09:17:53.307Z,19.73
2022-10-16T09:20:38.725Z,19.85
2022-10-16T09:23:04.963Z,19.85
2022-10-16T09:25:33.499Z,19.86
2022-10-16T09:27:59.871Z,19.75
2022-10-16T09:30:30.336Z,19.63
2022-10-16T09:32:59.201Z,19.80
2022-10-16T09:35:37.494Z,20.02
2022-10-16T09:38:04.043Z,19.99
2022-10-16T09:40:36.626Z,19.64
2022-10-16T09:43:26.259Z,20.41
2022-10-16T09:46:04.660Z,20.29
2022-10-16T09:48:52.634Z,19.95
2022-10-16T09:51:28.042Z,20.80
2022-10-16T09:54:02.802Z,20.43
2022-10-16T09:56:36.434Z,20.49
2022-10-16T09:59:14.258Z,20.67
2022-10-16T10:01:42.047Z,20.43
2022-10-16T10:04:08.937Z,19.93
2022-10-16T10:06:41.361Z,20.71
2022-10-16T10:09:24.497Z,20.86
2022-10-16T10:11:59.247Z,20.92
2022-10-16T10:14:44.392Z,21.06
2022-10-16T10:17:14.625Z,21.57
2022-10-16T10:19:46.864Z,24.19
2022-10-16T10:22:27.411Z,25.31
2022-10-16T10:25:09.214Z,27.81
2022-10-16T10:28:11.811Z,28.93
2022-10-16T10:31:29.339Z,28.91
2022-10-16T10:34:20.850Z,29.34
2022-10-16T10:37:00.516Z,28.72
2022-10-16T10:39:36.864Z,27.46
2022-10-16T10:42:32.068Z,25.87
2022-10-16T10:45:24.048Z,24.79
2022-10-16T10:48:15.085Z,24.30
2022-10-16T10:50:52.431Z,23.80
2022-10-16T10:53:49.306Z,24.06
2022-10-16T10:56:25.914Z,24.22
2022-10-16T10:59:16.458Z,25.12
2022-10-16T11:01:55.634Z,25.47
2022-10-16T11:04:36.651Z,25.47
2022-10-16T11:07:06.693Z,24.16
2022-10-16T11:09:39.062Z,23.54
2022-10-16T11:12:28.698Z,23.50
2022-10-16T11:15:15.207Z,22.90
2022-10-16T11:17:48.864Z,23.00
2022-10-16T11:20:25.730Z,22.68
2022-10-16T11:23:10.047Z,23.11
2022-10-16T11:25:36.466Z,23.29
2022-10-16T11:28:14.215Z,23.14
2022-10-16T11:30:58.821Z,23.49
2022-10-16T11:33:36.021Z,23.36
2022-10-16T11:36:24.117Z,23.40
2022-10-16T11:39:02.581Z,23.32
2022-10-16T11:41:35.907Z,23.60
2022-10-16T11:44:13.836Z,23.83
2022-10-16T11:46:58.973Z,24.02
2022-10-16T11:49:33.574Z,24.02
2022-10-16T11:52:02.844Z,23.67
2022-10-16T11:54:57.192Z,23.72
2022-10-16T11:57:34.674Z,23.22
2022-10-16T12:00:11.418Z,23.19
2022-10-16T12:02:48.762Z,23.84
2022-10-16T12:05:34.059Z,24.02
2022-10-16T12:08:11.397Z,23.95
2022-10-16T12:13:32.253Z,23.93
2022-10-16T12:16:21.429Z,23.95
2022-10-16T12:18:49.682Z,24.16
2022-10-16T12:21:19.959Z,24.47
2022-10-16T12:23:55.468Z,24.56
2022-10-16T12:26:31.320Z,24.58
2022-10-16T12:29:15.716Z,24.60
2022-10-16T12:31:54.858Z,24.45
2022-10-16T12:34:38.735Z,25.70
2022-10-16T12:37:16.211Z,26.20
2022-10-16T12:39:43.196Z,25.72
2022-10-16T12:42:32.029Z,25.86
2022-10-16T12:44:58.438Z,24.79
2022-10-16T12:47:38.521Z,24.69
2022-10-16T12:50:24.881Z,24.40
2022-10-16T12:52:51.460Z,24.22
2022-10-16T12:55:20.540Z,24.44
2022-10-16T12:58:24.469Z,25.06
2022-10-16T13:01:35.241Z,25.26
2022-10-16T13:04:46.214Z,25.61
2022-10-16T13:07:26.895Z,25.55
2022-10-16T13:10:19.667Z,25.18
2022-10-16T13:13:08.781Z,25.21
2022-10-16T13:15:59.636Z,25.05
2022-10-16T13:18:58.376Z,24.80
2022-10-16T13:21:57.060Z,24.84
2022-10-16T13:24:47.842Z,24.76
2022-10-16T13:27:41.386Z,24.67
2022-10-16T13:30:18.807Z,24.33
2022-10-16T13:32:48.537Z,24.57
2022-10-16T13:35:24.135Z,24.35
2022-10-16T13:37:51.165Z,24.72
2022-10-16T13:40:22.903Z,24.66
2022-10-16T13:42:50.683Z,24.46
2022-10-16T13:45:26.352Z,24.42
2022-10-16T13:48:03.529Z,24.24
2022-10-16T13:50:30.053Z,23.94
2022-10-16T13:53:07.278Z,23.55
2022-10-16T13:55:34.278Z,23.46
2022-10-16T13:58:09.433Z,23.20
2022-10-16T14:00:36.339Z,23.50
2022-10-16T14:03:06.303Z,23.75
2022-10-16T14:05:33.095Z,23.90
2022-10-16T14:08:00.138Z,24.04
2022-10-16T14:10:31.035Z,24.06
2022-10-16T14:13:07.229Z,24.14
2022-10-16T14:15:36.019Z,24.11
2022-10-16T14:18:03.438Z,23.98
2022-10-16T14:20:33.032Z,23.85
2022-10-16T14:23:21.405Z,23.48
2022-10-16T14:25:48.105Z,23.24
2022-10-16T14:28:14.349Z,23.49
2022-10-16T14:30:54.446Z,23.67
2022-10-16T14:33:41.006Z,23.23
2022-10-16T14:36:14.732Z,23.42
2022-10-16T14:38:44.049Z,23.31
2022-10-16T14:41:10.737Z,23.10
2022-10-16T14:43:47.397Z,22.92
2022-10-16T14:48:52.306Z,23.37
2022-10-16T14:51:20.302Z,23.49
2022-10-16T14:53:47.588Z,23.05
2022-10-16T14:56:21.271Z,23.25
2022-10-16T14:58:48.185Z,22.83
2022-10-16T15:01:14.637Z,23.20
2022-10-16T15:03:41.067Z,23.24
2022-10-16T15:06:15.312Z,23.34
2022-10-16T15:08:42.571Z,23.39
2022-10-16T15:11:14.830Z,23.26
2022-10-16T15:13:41.224Z,23.25
2022-10-16T15:16:16.600Z,23.32
2022-10-16T15:18:43.245Z,23.21
2022-10-16T15:21:21.571Z,23.23
2022-10-16T15:23:50.427Z,23.15
2022-10-16T15:26:16.768Z,22.92
2022-10-16T15:28:43.156Z,23.01
2022-10-16T15:31:09.605Z,23.08
2022-10-16T15:33:39.602Z,22.90
2022-10-16T15:36:07.222Z,22.98
2022-10-16T15:38:33.525Z,22.80
2022-10-16T15:40:59.873Z,22.65
2022-10-16T15:43:26.450Z,22.97
2022-10-16T15:46:18.452Z,22.80
2022-10-16T15:48:45.001Z,22.99
2022-10-16T15:51:11.356Z,22.80
2022-10-16T15:53:37.693Z,22.80
2022-10-16T15:56:08.589Z,22.71
2022-10-16T15:58:35.070Z,22.49
2022-10-16T16:01:02.723Z,22.10
2022-10-16T16:03:30.103Z,21.73
2022-10-16T16:05:56.838Z,22.40
2022-10-16T16:08:23.516Z,22.44
2022-10-16T16:11:00.738Z,22.23
2022-10-16T16:13:27.368Z,22.42
2022-10-16T16:15:54.026Z,22.42
2022-10-16T16:18:20.474Z,21.97
2022-10-16T16:20:46.953Z,22.18
2022-10-16T16:23:13.285Z,21.84
2022-10-16T16:25:39.623Z,22.03
2022-10-16T16:28:07.431Z,21.93
2022-10-16T16:30:34.052Z,21.88
2022-10-16T16:33:00.412Z,22.02
2022-10-16T16:35:26.736Z,22.15
2022-10-16T16:37:53.084Z,22.08
2022-10-16T16:40:19.389Z,21.92
2022-10-16T16:42:49.064Z,21.55
2022-10-16T16:45:15.498Z,21.64
2022-10-16T16:47:41.954Z,21.51
2022-10-16T16:50:08.583Z,21.52
2022-10-16T16:52:35.885Z,21.73
2022-10-16T16:55:02.778Z,21.75
2022-10-16T16:57:29.489Z,21.68
2022-10-16T16:59:56.085Z,21.69
2022-10-16T17:02:22.534Z,21.66
2022-10-16T17:04:48.875Z,21.43
2022-10-16T17:07:15.181Z,21.38
2022-10-16T17:09:41.522Z,21.47
2022-10-16T17:12:07.855Z,21.42
2022-10-16T17:14:34.196Z,21.21
2022-10-16T17:17:00.552Z,21.30
2022-10-16T17:19:26.915Z,21.07
2022-10-16T17:21:53.506Z,21.02
2022-10-16T17:24:21.041Z,20.82
2022-10-16T17:26:49.107Z,21.29
2022-10-16T17:29:18.047Z,21.04
2022-10-16T17:31:44.966Z,21.42
2022-10-16T17:34:12.814Z,21.30
2022-10-16T17:36:43.799Z,21.13
2022-10-16T17:39:11.912Z,21.01
2022-10-16T17:41:38.322Z,20.86
2022-10-16T17:44:06.322Z,21.22
2022-10-16T17:46:36.891Z,21.18
2022-10-16T17:49:06.741Z,21.15
2022-10-16T17:51:33.292Z,21.01
2022-10-16T17:54:02.007Z,21.05
2022-10-16T17:56:29.976Z,20.84
2022-10-16T17:58:59.754Z,21.09
2022-10-16T18:01:30.099Z,20.21
2022-10-16T18:04:02.564Z,20.88
2022-10-16T18:06:29.291Z,21.09
2022-10-16T18:08:57.777Z,21.27
2022-10-16T18:11:25.298Z,21.17
2022-10-16T18:13:53.390Z,21.34
2022-10-16T18:16:20.230Z,21.40
2022-10-16T18:18:46.971Z,21.35
2022-10-16T18:21:15.854Z,21.37
2022-10-16T18:23:43.820Z,21.40
2022-10-16T18:26:14.662Z,21.25
2022-10-16T18:28:41.520Z,21.31
2022-10-16T18:31:11.825Z,21.12
2022-10-16T18:33:39.151Z,20.93
2022-10-16T18:36:08.272Z,20.58
2022-10-16T18:38:36.019Z,20.19
2022-10-16T18:41:04.530Z,19.82
2022-10-16T18:43:32.546Z,19.51
2022-10-16T18:46:21.772Z,19.67
2022-10-16T18:48:49.105Z,19.66
2022-10-16T18:51:20.041Z,19.66
2022-10-16T18:53:48.921Z,19.40
2022-10-16T18:56:17.073Z,19.44
2022-10-16T18:58:45.314Z,19.61
2022-10-16T19:01:16.421Z,19.58
2022-10-16T19:03:49.409Z,19.33
2022-10-16T19:06:16.811Z,19.56
2022-10-16T19:08:43.637Z,19.23
2022-10-16T19:11:15.870Z,19.37
2022-10-16T19:13:43.416Z,19.73
2022-10-16T19:16:20.255Z,19.73
2022-10-16T19:18:48.689Z,19.67
2022-10-16T19:21:16.093Z,19.68
2022-10-16T19:23:42.969Z,19.75
2022-10-16T19:26:15.361Z,19.70
2022-10-16T19:28:42.697Z,19.35
2022-10-16T19:31:18.450Z,19.59
2022-10-16T19:33:45.809Z,19.54
2022-10-16T19:36:17.167Z,19.64
2022-10-16T19:38:44.992Z,19.52
2022-10-16T19:41:17.615Z,19.66
2022-10-16T19:43:44.804Z,19.70
2022-10-16T19:46:17.052Z,19.52
2022-10-16T19:48:44.414Z,19.43
2022-10-16T19:51:13.107Z,19.47
2022-10-16T19:53:39.418Z,19.72
2022-10-16T19:56:17.304Z,19.74
2022-10-16T19:58:44.734Z,19.56
2022-10-16T20:01:12.382Z,19.70
2022-10-16T20:03:41.553Z,20.02
2022-10-16T20:06:08.989Z,20.02
2022-10-16T20:08:37.351Z,19.89
2022-10-16T20:11:04.849Z,19.87
2022-10-16T20:13:31.891Z,19.88
2022-10-16T20:15:58.582Z,19.85
2022-10-16T20:18:24.976Z,19.80
2022-10-16T20:20:52.499Z,19.71
2022-10-16T20:23:19.564Z,19.87
2022-10-16T20:25:46.405Z,19.68
2022-10-16T20:28:15.682Z,19.80
2022-10-16T20:30:44.220Z,19.77
2022-10-16T20:33:11.463Z,19.75
2022-10-16T20:35:42.784Z,19.72
2022-10-16T20:38:10.057Z,19.64
2022-10-16T20:40:38.411Z,19.51
2022-10-16T20:43:05.678Z,19.80
2022-10-16T20:45:32.081Z,19.69
2022-10-16T20:47:58.561Z,19.78
2022-10-16T20:50:29.098Z,19.82
2022-10-16T20:52:55.852Z,19.66
2022-10-16T20:55:22.187Z,19.62
2022-10-16T20:57:48.546Z,19.62
2022-10-16T21:00:15.266Z,19.11
2022-10-16T21:02:41.677Z,19.53
2022-10-16T21:05:08.260Z,19.58
2022-10-16T21:07:34.613Z,19.56
2022-10-16T21:10:00.931Z,19.61
2022-10-16T21:12:27.885Z,19.69
2022-10-16T21:15:13.526Z,19.55
2022-10-16T21:17:40.599Z,19.46
2022-10-16T21:20:07.269Z,19.74
2022-10-16T21:22:33.619Z,19.56
2022-10-16T21:24:59.995Z,19.73
2022-10-16T21:27:26.308Z,19.75
2022-10-16T21:29:54.153Z,19.84
2022-10-16T21:32:23.409Z,19.98
2022-10-16T21:34:49.844Z,19.78
2022-10-16T21:37:16.160Z,19.78
2022-10-16T21:39:42.489Z,19.78
2022-10-16T21:42:08.858Z,19.82
2022-10-16T21:44:35.351Z,19.69
2022-10-16T21:47:01.693Z,19.47
2022-10-16T21:49:28.092Z,19.52
2022-10-16T21:51:54.392Z,19.65
2022-10-16T21:54:22.881Z,19.73
2022-10-16T21:56:49.587Z,19.46
2022-10-16T21:59:16.027Z,19.34
2022-10-16T22:01:43.285Z,19.65
2022-10-16T22:04:12.095Z,19.64
2022-10-16T22:06:39.054Z,19.49
2022-10-16T22:09:05.854Z,19.56
2022-10-16T22:11:37.256Z,19.67
2022-10-16T22:14:05.617Z,19.53
2022-10-16T22:16:32.295Z,19.51
2022-10-16T22:19:00.901Z,19.52
2022-10-16T22:21:28.294Z,19.67
2022-10-16T22:23:55.294Z,19.55
2022-10-16T22:26:21.963Z,19.61
2022-10-16T22:28:48.446Z,19.54
2022-10-16T22:31:15.601Z,19.54
2022-10-16T22:33:42.626Z,19.36
2022-10-16T22:36:12.226Z,19.50
2022-10-16T22:38:38.873Z,19.60
2022-10-16T22:41:08.197Z,19.63
2022-10-16T22:43:40.082Z,19.69
2022-10-16T22:46:08.746Z,19.72
2022-10-16T22:48:36.026Z,19.65
2022-10-16T22:51:03.792Z,19.63
2022-10-16T22:53:30.602Z,19.47
2022-10-16T22:55:57.023Z,19.71
2022-10-16T22:58:23.353Z,19.57
2022-10-16T23:00:50.168Z,19.70
2022-10-16T23:03:17.182Z,19.62
2022-10-16T23:05:43.701Z,19.39
2022-10-16T23:08:10.845Z,19.63
2022-10-16T23:10:43.473Z,19.58
2022-10-16T23:13:10.245Z,19.46
2022-10-16T23:15:40.638Z,19.54
2022-10-16T23:18:07.559Z,19.45
2022-10-16T23:20:33.889Z,19.35
2022-10-16T23:23:00.250Z,19.44
2022-10-16T23:25:27.114Z,19.40
2022-10-16T23:27:55.143Z,19.52
2022-10-16T23:30:21.563Z,19.45
2022-10-16T23:32:48.336Z,19.51
2022-10-16T23:35:15.217Z,19.26
2022-10-16T23:37:41.555Z,19.13
2022-10-16T23:40:08.256Z,19.25
2022-10-16T23:42:34.660Z,19.06
2022-10-16T23:45:00.980Z,19.23
2022-10-16T23:47:27.731Z,19.32
2022-10-16T23:49:54.218Z,19.15
2022-10-16T23:52:20.541Z,18.97
2022-10-16T23:54:46.875Z,19.03
2022-10-16T23:57:13.229Z,18.97
2022-10-16T23:59:39.567Z,19.01
